sensor_id;sensor_type;location;lat;lon;timestamp;P1;durP1;ratioP1;P2;durP2;ratioP2
10641;SDS011;5369;49.586;8.646;2024-02-21T00:01:22;14.97;;;5.93;;
10641;SDS011;5369;49.586;8.646;2024-02-21T00:03:48;10.10;;;5.67;;
10641;SDS011;5369;49.586;8.646;2024-02-21T00:06:15;14.33;;;6.60;;
10641;SDS011;5369;49.586;8.646;2024-02-21T00:08:41;22.67;;;9.20;;
10641;SDS011;5369;49.586;8.646;2024-02-21T00:11:07;15.70;;;7.23;;
10641;SDS011;5369;49.586;8.646;2024-02-21T00:13:33;19.43;;;6.93;;
10641;SDS011;5369;49.586;8.646;2024-02-21T00:16:00;13.80;;;6.53;;
10641;SDS011;5369;49.586;8.646;2024-02-21T00:18:27;19.47;;;7.83;;
10641;SDS011;5369;49.586;8.646;2024-02-21T00:20:53;14.60;;;6.97;;
10641;SDS011;5369;49.586;8.646;2024-02-21T00:23:19;17.23;;;6.53;;
10641;SDS011;5369;49.586;8.646;2024-02-21T00:25:45;16.67;;;6.50;;
10641;SDS011;5369;49.586;8.646;2024-02-21T00:28:11;15.93;;;6.50;;
10641;SDS011;5369;49.586;8.646;2024-02-21T00:30:38;15.07;;;6.50;;
10641;SDS011;5369;49.586;8.646;2024-02-21T00:33:04;13.43;;;6.30;;
10641;SDS011;5369;49.586;8.646;2024-02-21T00:35:30;12.90;;;6.60;;
10641;SDS011;5369;49.586;8.646;2024-02-21T00:37:56;18.60;;;6.97;;
10641;SDS011;5369;49.586;8.646;2024-02-21T00:40:24;12.13;;;6.50;;
10641;SDS011;5369;49.586;8.646;2024-02-21T00:42:50;12.83;;;6.27;;
10641;SDS011;5369;49.586;8.646;2024-02-21T00:45:17;16.63;;;7.57;;
10641;SDS011;5369;49.586;8.646;2024-02-21T00:47:43;14.80;;;6.33;;
10641;SDS011;5369;49.586;8.646;2024-02-21T00:50:09;14.37;;;6.37;;
10641;SDS011;5369;49.586;8.646;2024-02-21T00:52:35;12.53;;;5.97;;
10641;SDS011;5369;49.586;8.646;2024-02-21T00:55:01;13.47;;;5.87;;
10641;SDS011;5369;49.586;8.646;2024-02-21T00:57:27;18.53;;;6.60;;
10641;SDS011;5369;49.586;8.646;2024-02-21T00:59:54;15.60;;;6.33;;
10641;SDS011;5369;49.586;8.646;2024-02-21T01:02:20;15.83;;;6.43;;
10641;SDS011;5369;49.586;8.646;2024-02-21T01:04:46;11.97;;;5.73;;
10641;SDS011;5369;49.586;8.646;2024-02-21T01:07:12;14.07;;;5.73;;
10641;SDS011;5369;49.586;8.646;2024-02-21T01:09:38;13.93;;;5.57;;
10641;SDS011;5369;49.586;8.646;2024-02-21T01:12:04;16.30;;;6.23;;
10641;SDS011;5369;49.586;8.646;2024-02-21T01:14:31;14.43;;;6.10;;
10641;SDS011;5369;49.586;8.646;2024-02-21T01:16:57;10.03;;;5.27;;
10641;SDS011;5369;49.586;8.646;2024-02-21T01:19:23;14.03;;;5.83;;
10641;SDS011;5369;49.586;8.646;2024-02-21T01:21:49;13.40;;;6.00;;
10641;SDS011;5369;49.586;8.646;2024-02-21T01:24:15;12.67;;;5.60;;
10641;SDS011;5369;49.586;8.646;2024-02-21T01:26:41;12.53;;;5.43;;
10641;SDS011;5369;49.586;8.646;2024-02-21T01:29:08;13.93;;;6.10;;
10641;SDS011;5369;49.586;8.646;2024-02-21T01:31:34;13.43;;;5.73;;
10641;SDS011;5369;49.586;8.646;2024-02-21T01:34:00;12.43;;;5.33;;
10641;SDS011;5369;49.586;8.646;2024-02-21T01:36:26;12.83;;;5.20;;
10641;SDS011;5369;49.586;8.646;2024-02-21T01:38:52;12.93;;;5.70;;
10641;SDS011;5369;49.586;8.646;2024-02-21T01:41:18;17.23;;;6.00;;
10641;SDS011;5369;49.586;8.646;2024-02-21T01:43:45;13.20;;;5.83;;
10641;SDS011;5369;49.586;8.646;2024-02-21T01:46:11;9.33;;;5.47;;
10641;SDS011;5369;49.586;8.646;2024-02-21T01:48:37;12.67;;;5.03;;
10641;SDS011;5369;49.586;8.646;2024-02-21T01:51:04;12.27;;;5.20;;
10641;SDS011;5369;49.586;8.646;2024-02-21T01:53:31;11.77;;;5.57;;
10641;SDS011;5369;49.586;8.646;2024-02-21T01:55:58;13.60;;;5.70;;
10641;SDS011;5369;49.586;8.646;2024-02-21T01:58:25;11.67;;;5.33;;
10641;SDS011;5369;49.586;8.646;2024-02-21T02:00:51;11.50;;;5.40;;
10641;SDS011;5369;49.586;8.646;2024-02-21T02:03:18;15.83;;;5.50;;
10641;SDS011;5369;49.586;8.646;2024-02-21T02:08:12;10.80;;;5.30;;
10641;SDS011;5369;49.586;8.646;2024-02-21T02:10:38;11.67;;;5.30;;
10641;SDS011;5369;49.586;8.646;2024-02-21T02:13:05;14.63;;;5.33;;
10641;SDS011;5369;49.586;8.646;2024-02-21T02:15:41;11.50;;;4.90;;
10641;SDS011;5369;49.586;8.646;2024-02-21T02:18:07;12.30;;;5.50;;
10641;SDS011;5369;49.586;8.646;2024-02-21T02:20:34;15.23;;;5.70;;
10641;SDS011;5369;49.586;8.646;2024-02-21T02:23:00;16.03;;;5.43;;
10641;SDS011;5369;49.586;8.646;2024-02-21T02:25:28;10.63;;;5.07;;
10641;SDS011;5369;49.586;8.646;2024-02-21T02:27:55;11.70;;;5.13;;
10641;SDS011;5369;49.586;8.646;2024-02-21T02:30:21;11.03;;;5.23;;
10641;SDS011;5369;49.586;8.646;2024-02-21T02:32:47;11.73;;;5.33;;
10641;SDS011;5369;49.586;8.646;2024-02-21T02:35:13;12.27;;;5.17;;
10641;SDS011;5369;49.586;8.646;2024-02-21T02:37:39;13.00;;;5.27;;
10641;SDS011;5369;49.586;8.646;2024-02-21T02:40:06;12.90;;;5.57;;
10641;SDS011;5369;49.586;8.646;2024-02-21T02:42:33;13.87;;;5.47;;
10641;SDS011;5369;49.586;8.646;2024-02-21T02:44:59;11.43;;;5.30;;
10641;SDS011;5369;49.586;8.646;2024-02-21T02:47:25;13.60;;;5.20;;
10641;SDS011;5369;49.586;8.646;2024-02-21T02:49:51;16.40;;;5.83;;
10641;SDS011;5369;49.586;8.646;2024-02-21T02:52:18;12.87;;;5.53;;
10641;SDS011;5369;49.586;8.646;2024-02-21T02:54:44;11.67;;;5.30;;
10641;SDS011;5369;49.586;8.646;2024-02-21T02:57:11;13.53;;;5.33;;
10641;SDS011;5369;49.586;8.646;2024-02-21T02:59:37;9.73;;;5.73;;
10641;SDS011;5369;49.586;8.646;2024-02-21T03:02:04;12.37;;;5.63;;
10641;SDS011;5369;49.586;8.646;2024-02-21T03:04:30;10.80;;;5.30;;
10641;SDS011;5369;49.586;8.646;2024-02-21T03:06:56;12.23;;;5.40;;
10641;SDS011;5369;49.586;8.646;2024-02-21T03:09:22;9.60;;;5.07;;
10641;SDS011;5369;49.586;8.646;2024-02-21T03:11:48;13.67;;;5.80;;
10641;SDS011;5369;49.586;8.646;2024-02-21T03:14:14;11.90;;;5.63;;
10641;SDS011;5369;49.586;8.646;2024-02-21T03:16:40;13.23;;;5.93;;
10641;SDS011;5369;49.586;8.646;2024-02-21T03:19:07;13.00;;;5.50;;
10641;SDS011;5369;49.586;8.646;2024-02-21T03:21:33;10.17;;;5.20;;
10641;SDS011;5369;49.586;8.646;2024-02-21T03:23:59;13.80;;;5.60;;
10641;SDS011;5369;49.586;8.646;2024-02-21T03:26:25;9.80;;;5.03;;
10641;SDS011;5369;49.586;8.646;2024-02-21T03:28:51;14.33;;;5.70;;
10641;SDS011;5369;49.586;8.646;2024-02-21T03:31:18;10.30;;;5.10;;
10641;SDS011;5369;49.586;8.646;2024-02-21T03:33:44;13.13;;;5.13;;
10641;SDS011;5369;49.586;8.646;2024-02-21T03:36:14;13.47;;;5.33;;
10641;SDS011;5369;49.586;8.646;2024-02-21T03:38:40;12.57;;;5.37;;
10641;SDS011;5369;49.586;8.646;2024-02-21T03:41:06;11.07;;;5.30;;
10641;SDS011;5369;49.586;8.646;2024-02-21T03:43:33;13.03;;;5.30;;
10641;SDS011;5369;49.586;8.646;2024-02-21T03:45:59;12.90;;;5.60;;
10641;SDS011;5369;49.586;8.646;2024-02-21T03:48:26;11.10;;;4.90;;
10641;SDS011;5369;49.586;8.646;2024-02-21T03:50:52;12.90;;;5.50;;
10641;SDS011;5369;49.586;8.646;2024-02-21T03:53:18;12.90;;;5.30;;
10641;SDS011;5369;49.586;8.646;2024-02-21T03:55:44;10.63;;;4.90;;
10641;SDS011;5369;49.586;8.646;2024-02-21T03:58:11;11.57;;;5.20;;
10641;SDS011;5369;49.586;8.646;2024-02-21T04:00:37;12.43;;;5.53;;
10641;SDS011;5369;49.586;8.646;2024-02-21T04:03:04;10.80;;;4.83;;
10641;SDS011;5369;49.586;8.646;2024-02-21T04:05:31;14.03;;;5.77;;
10641;SDS011;5369;49.586;8.646;2024-02-21T04:07:58;14.43;;;5.60;;
10641;SDS011;5369;49.586;8.646;2024-02-21T04:10:24;12.73;;;5.90;;
10641;SDS011;5369;49.586;8.646;2024-02-21T04:12:50;12.50;;;5.87;;
10641;SDS011;5369;49.586;8.646;2024-02-21T04:15:16;12.70;;;5.70;;
10641;SDS011;5369;49.586;8.646;2024-02-21T04:17:43;10.37;;;5.17;;
10641;SDS011;5369;49.586;8.646;2024-02-21T04:20:13;10.83;;;5.40;;
10641;SDS011;5369;49.586;8.646;2024-02-21T04:22:40;12.20;;;5.50;;
10641;SDS011;5369;49.586;8.646;2024-02-21T04:25:06;12.83;;;5.37;;
10641;SDS011;5369;49.586;8.646;2024-02-21T04:27:32;11.93;;;5.50;;
10641;SDS011;5369;49.586;8.646;2024-02-21T04:29:59;13.47;;;5.20;;
10641;SDS011;5369;49.586;8.646;2024-02-21T04:32:25;14.93;;;5.40;;
10641;SDS011;5369;49.586;8.646;2024-02-21T04:34:52;13.20;;;5.20;;
10641;SDS011;5369;49.586;8.646;2024-02-21T04:37:19;9.17;;;5.23;;
10641;SDS011;5369;49.586;8.646;2024-02-21T04:39:46;11.43;;;5.23;;
10641;SDS011;5369;49.586;8.646;2024-02-21T04:42:12;13.13;;;5.50;;
10641;SDS011;5369;49.586;8.646;2024-02-21T04:44:38;12.70;;;5.80;;
10641;SDS011;5369;49.586;8.646;2024-02-21T04:47:04;10.90;;;5.07;;
10641;SDS011;5369;49.586;8.646;2024-02-21T04:49:30;13.13;;;5.70;;
10641;SDS011;5369;49.586;8.646;2024-02-21T04:51:57;10.53;;;5.27;;
10641;SDS011;5369;49.586;8.646;2024-02-21T04:54:23;11.00;;;4.87;;
10641;SDS011;5369;49.586;8.646;2024-02-21T04:56:49;13.43;;;5.40;;
10641;SDS011;5369;49.586;8.646;2024-02-21T04:59:15;10.50;;;5.13;;
10641;SDS011;5369;49.586;8.646;2024-02-21T05:01:41;11.87;;;5.23;;
10641;SDS011;5369;49.586;8.646;2024-02-21T05:04:07;11.70;;;4.80;;
10641;SDS011;5369;49.586;8.646;2024-02-21T05:06:39;12.53;;;4.87;;
10641;SDS011;5369;49.586;8.646;2024-02-21T05:09:06;12.53;;;5.30;;
10641;SDS011;5369;49.586;8.646;2024-02-21T05:11:32;11.30;;;5.10;;
10641;SDS011;5369;49.586;8.646;2024-02-21T05:13:58;11.53;;;5.30;;
10641;SDS011;5369;49.586;8.646;2024-02-21T05:16:24;11.47;;;5.13;;
10641;SDS011;5369;49.586;8.646;2024-02-21T05:18:50;10.37;;;5.20;;
10641;SDS011;5369;49.586;8.646;2024-02-21T05:21:17;13.07;;;5.40;;
10641;SDS011;5369;49.586;8.646;2024-02-21T05:23:43;10.33;;;5.20;;
10641;SDS011;5369;49.586;8.646;2024-02-21T05:26:09;13.63;;;5.47;;
10641;SDS011;5369;49.586;8.646;2024-02-21T05:28:35;13.73;;;4.90;;
10641;SDS011;5369;49.586;8.646;2024-02-21T05:31:02;11.53;;;5.10;;
10641;SDS011;5369;49.586;8.646;2024-02-21T05:33:28;15.53;;;5.53;;
10641;SDS011;5369;49.586;8.646;2024-02-21T05:35:54;11.90;;;5.33;;
10641;SDS011;5369;49.586;8.646;2024-02-21T05:38:20;13.43;;;4.63;;
10641;SDS011;5369;49.586;8.646;2024-02-21T05:40:46;10.23;;;5.20;;
10641;SDS011;5369;49.586;8.646;2024-02-21T05:43:13;11.60;;;5.03;;
10641;SDS011;5369;49.586;8.646;2024-02-21T05:45:39;11.03;;;5.43;;
10641;SDS011;5369;49.586;8.646;2024-02-21T05:48:05;12.50;;;5.30;;
10641;SDS011;5369;49.586;8.646;2024-02-21T05:50:31;9.80;;;4.80;;
10641;SDS011;5369;49.586;8.646;2024-02-21T05:52:57;12.17;;;4.80;;
10641;SDS011;5369;49.586;8.646;2024-02-21T05:55:24;14.07;;;5.63;;
10641;SDS011;5369;49.586;8.646;2024-02-21T05:57:53;12.40;;;5.03;;
10641;SDS011;5369;49.586;8.646;2024-02-21T06:00:20;11.63;;;4.90;;
10641;SDS011;5369;49.586;8.646;2024-02-21T06:02:46;11.83;;;5.20;;
10641;SDS011;5369;49.586;8.646;2024-02-21T06:05:13;12.03;;;5.03;;
10641;SDS011;5369;49.586;8.646;2024-02-21T06:07:40;12.57;;;5.40;;
10641;SDS011;5369;49.586;8.646;2024-02-21T06:10:06;13.80;;;5.33;;
10641;SDS011;5369;49.586;8.646;2024-02-21T06:12:33;8.90;;;4.90;;
10641;SDS011;5369;49.586;8.646;2024-02-21T06:14:59;16.70;;;5.27;;
10641;SDS011;5369;49.586;8.646;2024-02-21T06:17:25;11.07;;;5.30;;
10641;SDS011;5369;49.586;8.646;2024-02-21T06:19:51;10.77;;;5.23;;
10641;SDS011;5369;49.586;8.646;2024-02-21T06:22:18;16.23;;;5.80;;
10641;SDS011;5369;49.586;8.646;2024-02-21T06:24:44;10.33;;;5.33;;
10641;SDS011;5369;49.586;8.646;2024-02-21T06:27:11;16.10;;;6.50;;
10641;SDS011;5369;49.586;8.646;2024-02-21T06:29:37;14.53;;;6.50;;
10641;SDS011;5369;49.586;8.646;2024-02-21T06:32:03;13.17;;;6.80;;
10641;SDS011;5369;49.586;8.646;2024-02-21T06:34:31;14.47;;;7.33;;
10641;SDS011;5369;49.586;8.646;2024-02-21T06:36:57;14.23;;;7.17;;
10641;SDS011;5369;49.586;8.646;2024-02-21T06:39:23;18.40;;;7.50;;
10641;SDS011;5369;49.586;8.646;2024-02-21T06:41:50;13.90;;;7.67;;
10641;SDS011;5369;49.586;8.646;2024-02-21T06:44:18;15.70;;;8.00;;
10641;SDS011;5369;49.586;8.646;2024-02-21T06:46:44;16.97;;;8.03;;
10641;SDS011;5369;49.586;8.646;2024-02-21T06:49:10;12.70;;;7.47;;
10641;SDS011;5369;49.586;8.646;2024-02-21T06:51:43;17.67;;;7.93;;
10641;SDS011;5369;49.586;8.646;2024-02-21T06:54:10;13.00;;;7.67;;
10641;SDS011;5369;49.586;8.646;2024-02-21T06:56:36;15.93;;;7.60;;
10641;SDS011;5369;49.586;8.646;2024-02-21T06:59:03;14.60;;;6.93;;
10641;SDS011;5369;49.586;8.646;2024-02-21T07:01:29;16.87;;;7.10;;
10641;SDS011;5369;49.586;8.646;2024-02-21T07:03:56;17.83;;;6.83;;
10641;SDS011;5369;49.586;8.646;2024-02-21T07:06:22;15.47;;;6.53;;
10641;SDS011;5369;49.586;8.646;2024-02-21T07:08:49;11.87;;;6.17;;
10641;SDS011;5369;49.586;8.646;2024-02-21T07:11:15;12.90;;;5.67;;
10641;SDS011;5369;49.586;8.646;2024-02-21T07:13:41;12.50;;;5.60;;
10641;SDS011;5369;49.586;8.646;2024-02-21T07:16:08;15.07;;;6.47;;
10641;SDS011;5369;49.586;8.646;2024-02-21T07:18:34;11.97;;;5.53;;
10641;SDS011;5369;49.586;8.646;2024-02-21T07:21:00;12.93;;;5.67;;
10641;SDS011;5369;49.586;8.646;2024-02-21T07:23:26;15.03;;;6.60;;
10641;SDS011;5369;49.586;8.646;2024-02-21T07:25:53;13.80;;;5.87;;
10641;SDS011;5369;49.586;8.646;2024-02-21T07:28:19;12.50;;;5.87;;
10641;SDS011;5369;49.586;8.646;2024-02-21T07:30:45;11.13;;;5.70;;
10641;SDS011;5369;49.586;8.646;2024-02-21T07:33:11;11.70;;;6.00;;
10641;SDS011;5369;49.586;8.646;2024-02-21T07:35:38;9.30;;;5.20;;
10641;SDS011;5369;49.586;8.646;2024-02-21T07:38:06;13.80;;;5.30;;
10641;SDS011;5369;49.586;8.646;2024-02-21T07:40:37;9.07;;;5.13;;
10641;SDS011;5369;49.586;8.646;2024-02-21T07:43:04;10.30;;;5.07;;
10641;SDS011;5369;49.586;8.646;2024-02-21T07:45:30;12.90;;;5.47;;
10641;SDS011;5369;49.586;8.646;2024-02-21T07:47:57;11.67;;;5.53;;
10641;SDS011;5369;49.586;8.646;2024-02-21T07:50:23;10.67;;;5.13;;
10641;SDS011;5369;49.586;8.646;2024-02-21T07:52:49;12.63;;;5.50;;
10641;SDS011;5369;49.586;8.646;2024-02-21T07:55:15;11.97;;;5.80;;
10641;SDS011;5369;49.586;8.646;2024-02-21T07:57:42;11.70;;;5.50;;
10641;SDS011;5369;49.586;8.646;2024-02-21T08:00:08;12.93;;;5.67;;
10641;SDS011;5369;49.586;8.646;2024-02-21T08:02:39;13.43;;;5.80;;
10641;SDS011;5369;49.586;8.646;2024-02-21T08:05:05;14.37;;;5.80;;
10641;SDS011;5369;49.586;8.646;2024-02-21T08:07:31;12.27;;;5.23;;
10641;SDS011;5369;49.586;8.646;2024-02-21T08:09:58;13.97;;;5.93;;
10641;SDS011;5369;49.586;8.646;2024-02-21T08:12:24;10.43;;;4.70;;
10641;SDS011;5369;49.586;8.646;2024-02-21T08:14:51;11.97;;;5.63;;
10641;SDS011;5369;49.586;8.646;2024-02-21T08:17:17;15.30;;;5.50;;
10641;SDS011;5369;49.586;8.646;2024-02-21T08:19:43;10.53;;;4.93;;
10641;SDS011;5369;49.586;8.646;2024-02-21T08:22:09;10.37;;;5.80;;
10641;SDS011;5369;49.586;8.646;2024-02-21T08:24:36;11.33;;;5.60;;
10641;SDS011;5369;49.586;8.646;2024-02-21T08:27:03;11.43;;;4.90;;
10641;SDS011;5369;49.586;8.646;2024-02-21T08:29:29;13.63;;;5.37;;
10641;SDS011;5369;49.586;8.646;2024-02-21T08:31:56;13.10;;;5.10;;
10641;SDS011;5369;49.586;8.646;2024-02-21T08:34:22;10.47;;;5.57;;
10641;SDS011;5369;49.586;8.646;2024-02-21T08:36:48;16.40;;;5.87;;
10641;SDS011;5369;49.586;8.646;2024-02-21T08:39:15;11.53;;;4.63;;
10641;SDS011;5369;49.586;8.646;2024-02-21T08:41:42;11.53;;;5.07;;
10641;SDS011;5369;49.586;8.646;2024-02-21T08:44:08;10.63;;;5.10;;
10641;SDS011;5369;49.586;8.646;2024-02-21T08:46:35;14.23;;;5.67;;
10641;SDS011;5369;49.586;8.646;2024-02-21T08:49:03;12.60;;;5.57;;
10641;SDS011;5369;49.586;8.646;2024-02-21T08:51:29;15.30;;;5.53;;
10641;SDS011;5369;49.586;8.646;2024-02-21T08:53:55;12.37;;;4.90;;
10641;SDS011;5369;49.586;8.646;2024-02-21T08:56:22;13.10;;;6.07;;
10641;SDS011;5369;49.586;8.646;2024-02-21T08:58:48;9.83;;;4.67;;
10641;SDS011;5369;49.586;8.646;2024-02-21T09:01:15;10.07;;;5.37;;
10641;SDS011;5369;49.586;8.646;2024-02-21T09:03:41;12.33;;;5.00;;
10641;SDS011;5369;49.586;8.646;2024-02-21T09:06:09;11.97;;;5.10;;
10641;SDS011;5369;49.586;8.646;2024-02-21T09:08:38;10.57;;;5.03;;
10641;SDS011;5369;49.586;8.646;2024-02-21T09:11:05;13.13;;;5.13;;
10641;SDS011;5369;49.586;8.646;2024-02-21T09:13:32;14.67;;;5.17;;
10641;SDS011;5369;49.586;8.646;2024-02-21T09:15:58;8.20;;;4.90;;
10641;SDS011;5369;49.586;8.646;2024-02-21T09:18:25;9.57;;;5.10;;
10641;SDS011;5369;49.586;8.646;2024-02-21T09:20:52;9.97;;;4.77;;
10641;SDS011;5369;49.586;8.646;2024-02-21T09:23:18;10.57;;;4.73;;
10641;SDS011;5369;49.586;8.646;2024-02-21T09:25:45;12.43;;;4.80;;
10641;SDS011;5369;49.586;8.646;2024-02-21T09:28:11;11.77;;;4.83;;
10641;SDS011;5369;49.586;8.646;2024-02-21T09:30:38;11.00;;;5.10;;
10641;SDS011;5369;49.586;8.646;2024-02-21T09:33:05;11.40;;;5.10;;
10641;SDS011;5369;49.586;8.646;2024-02-21T09:35:32;10.00;;;4.63;;
10641;SDS011;5369;49.586;8.646;2024-02-21T09:37:59;12.03;;;4.60;;
10641;SDS011;5369;49.586;8.646;2024-02-21T09:40:25;8.87;;;4.50;;
10641;SDS011;5369;49.586;8.646;2024-02-21T09:42:55;13.13;;;4.87;;
10641;SDS011;5369;49.586;8.646;2024-02-21T09:45:24;11.97;;;4.40;;
10641;SDS011;5369;49.586;8.646;2024-02-21T09:50:36;9.47;;;4.43;;
10641;SDS011;5369;49.586;8.646;2024-02-21T09:53:03;23.77;;;4.90;;
10641;SDS011;5369;49.586;8.646;2024-02-21T09:55:31;10.87;;;4.60;;
10641;SDS011;5369;49.586;8.646;2024-02-21T09:58:01;10.93;;;4.47;;
10641;SDS011;5369;49.586;8.646;2024-02-21T10:00:28;13.23;;;5.00;;
10641;SDS011;5369;49.586;8.646;2024-02-21T10:02:55;8.77;;;4.37;;
10641;SDS011;5369;49.586;8.646;2024-02-21T10:05:21;11.67;;;4.60;;
10641;SDS011;5369;49.586;8.646;2024-02-21T10:07:49;9.17;;;4.07;;
10641;SDS011;5369;49.586;8.646;2024-02-21T10:10:16;10.67;;;4.80;;
10641;SDS011;5369;49.586;8.646;2024-02-21T10:12:51;11.73;;;4.43;;
10641;SDS011;5369;49.586;8.646;2024-02-21T10:15:20;9.83;;;4.73;;
10641;SDS011;5369;49.586;8.646;2024-02-21T10:17:48;12.77;;;5.00;;
10641;SDS011;5369;49.586;8.646;2024-02-21T10:20:14;12.37;;;4.83;;
10641;SDS011;5369;49.586;8.646;2024-02-21T10:22:41;10.27;;;4.40;;
10641;SDS011;5369;49.586;8.646;2024-02-21T10:25:11;12.30;;;4.73;;
10641;SDS011;5369;49.586;8.646;2024-02-21T10:27:40;11.73;;;5.20;;
10641;SDS011;5369;49.586;8.646;2024-02-21T10:30:07;12.30;;;4.57;;
10641;SDS011;5369;49.586;8.646;2024-02-21T10:32:34;15.33;;;4.20;;
10641;SDS011;5369;49.586;8.646;2024-02-21T10:35:00;11.97;;;4.50;;
10641;SDS011;5369;49.586;8.646;2024-02-21T10:37:28;9.23;;;3.97;;
10641;SDS011;5369;49.586;8.646;2024-02-21T10:39:54;11.07;;;4.30;;
10641;SDS011;5369;49.586;8.646;2024-02-21T10:42:21;11.13;;;4.03;;
10641;SDS011;5369;49.586;8.646;2024-02-21T10:44:48;10.03;;;4.00;;
10641;SDS011;5369;49.586;8.646;2024-02-21T10:47:19;9.43;;;4.13;;
10641;SDS011;5369;49.586;8.646;2024-02-21T10:49:49;11.10;;;4.60;;
10641;SDS011;5369;49.586;8.646;2024-02-21T10:52:35;6.43;;;4.00;;
10641;SDS011;5369;49.586;8.646;2024-02-21T10:55:10;7.97;;;3.90;;
10641;SDS011;5369;49.586;8.646;2024-02-21T10:57:39;9.77;;;4.30;;
10641;SDS011;5369;49.586;8.646;2024-02-21T11:00:06;9.17;;;4.03;;
10641;SDS011;5369;49.586;8.646;2024-02-21T11:02:33;12.07;;;4.30;;
10641;SDS011;5369;49.586;8.646;2024-02-21T11:05:03;8.37;;;3.97;;
10641;SDS011;5369;49.586;8.646;2024-02-21T11:07:30;10.20;;;4.20;;
10641;SDS011;5369;49.586;8.646;2024-02-21T11:09:57;10.73;;;5.07;;
10641;SDS011;5369;49.586;8.646;2024-02-21T11:12:25;13.57;;;4.47;;
10641;SDS011;5369;49.586;8.646;2024-02-21T11:14:52;12.67;;;4.00;;
10641;SDS011;5369;49.586;8.646;2024-02-21T11:17:19;9.93;;;4.00;;
10641;SDS011;5369;49.586;8.646;2024-02-21T11:19:47;6.50;;;3.40;;
10641;SDS011;5369;49.586;8.646;2024-02-21T11:22:22;7.33;;;3.93;;
10641;SDS011;5369;49.586;8.646;2024-02-21T11:24:50;8.00;;;3.50;;
10641;SDS011;5369;49.586;8.646;2024-02-21T11:27:18;11.43;;;4.03;;
10641;SDS011;5369;49.586;8.646;2024-02-21T11:29:46;9.37;;;3.60;;
10641;SDS011;5369;49.586;8.646;2024-02-21T11:32:16;8.73;;;3.70;;
10641;SDS011;5369;49.586;8.646;2024-02-21T11:37:27;8.17;;;3.27;;
10641;SDS011;5369;49.586;8.646;2024-02-21T11:39:53;8.43;;;3.33;;
10641;SDS011;5369;49.586;8.646;2024-02-21T11:42:20;7.47;;;3.40;;
10641;SDS011;5369;49.586;8.646;2024-02-21T11:44:47;7.57;;;3.40;;
10641;SDS011;5369;49.586;8.646;2024-02-21T11:47:14;9.03;;;3.50;;
10641;SDS011;5369;49.586;8.646;2024-02-21T11:49:47;7.57;;;3.43;;
10641;SDS011;5369;49.586;8.646;2024-02-21T11:52:22;6.53;;;2.90;;
10641;SDS011;5369;49.586;8.646;2024-02-21T11:54:52;8.47;;;3.33;;
10641;SDS011;5369;49.586;8.646;2024-02-21T11:57:20;9.13;;;3.40;;
10641;SDS011;5369;49.586;8.646;2024-02-21T11:59:46;7.50;;;3.20;;
10641;SDS011;5369;49.586;8.646;2024-02-21T12:02:14;8.47;;;3.13;;
10641;SDS011;5369;49.586;8.646;2024-02-21T12:04:41;9.13;;;3.20;;
10641;SDS011;5369;49.586;8.646;2024-02-21T12:07:08;9.57;;;3.27;;
10641;SDS011;5369;49.586;8.646;2024-02-21T12:09:34;6.97;;;3.00;;
10641;SDS011;5369;49.586;8.646;2024-02-21T12:12:01;9.23;;;3.67;;
10641;SDS011;5369;49.586;8.646;2024-02-21T12:14:28;6.90;;;3.27;;
10641;SDS011;5369;49.586;8.646;2024-02-21T12:16:58;7.83;;;3.40;;
10641;SDS011;5369;49.586;8.646;2024-02-21T12:19:25;7.23;;;3.17;;
10641;SDS011;5369;49.586;8.646;2024-02-21T12:21:52;7.00;;;3.10;;
10641;SDS011;5369;49.586;8.646;2024-02-21T12:24:27;5.23;;;2.93;;
10641;SDS011;5369;49.586;8.646;2024-02-21T12:26:54;8.83;;;3.07;;
10641;SDS011;5369;49.586;8.646;2024-02-21T12:29:21;8.83;;;3.17;;
10641;SDS011;5369;49.586;8.646;2024-02-21T12:31:50;7.00;;;3.17;;
10641;SDS011;5369;49.586;8.646;2024-02-21T12:34:16;8.73;;;3.23;;
10641;SDS011;5369;49.586;8.646;2024-02-21T12:36:46;9.33;;;3.30;;
10641;SDS011;5369;49.586;8.646;2024-02-21T12:39:12;9.67;;;3.30;;
10641;SDS011;5369;49.586;8.646;2024-02-21T12:41:39;5.73;;;2.70;;
10641;SDS011;5369;49.586;8.646;2024-02-21T12:44:08;8.50;;;3.10;;
10641;SDS011;5369;49.586;8.646;2024-02-21T12:46:36;8.07;;;3.30;;
10641;SDS011;5369;49.586;8.646;2024-02-21T12:49:03;6.03;;;2.60;;
10641;SDS011;5369;49.586;8.646;2024-02-21T12:51:30;6.53;;;3.30;;
10641;SDS011;5369;49.586;8.646;2024-02-21T12:53:56;6.67;;;3.20;;
10641;SDS011;5369;49.586;8.646;2024-02-21T12:56:22;7.60;;;2.80;;
10641;SDS011;5369;49.586;8.646;2024-02-21T12:58:49;5.10;;;2.80;;
10641;SDS011;5369;49.586;8.646;2024-02-21T13:01:16;6.97;;;2.97;;
10641;SDS011;5369;49.586;8.646;2024-02-21T13:03:42;7.90;;;2.90;;
10641;SDS011;5369;49.586;8.646;2024-02-21T13:06:08;8.37;;;3.10;;
10641;SDS011;5369;49.586;8.646;2024-02-21T13:08:38;6.70;;;2.80;;
10641;SDS011;5369;49.586;8.646;2024-02-21T13:11:05;7.23;;;2.73;;
10641;SDS011;5369;49.586;8.646;2024-02-21T13:13:31;10.87;;;3.23;;
10641;SDS011;5369;49.586;8.646;2024-02-21T13:15:58;8.07;;;3.00;;
10641;SDS011;5369;49.586;8.646;2024-02-21T13:18:24;11.43;;;3.00;;
10641;SDS011;5369;49.586;8.646;2024-02-21T13:20:50;8.30;;;3.07;;
10641;SDS011;5369;49.586;8.646;2024-02-21T13:23:16;6.23;;;2.87;;
10641;SDS011;5369;49.586;8.646;2024-02-21T13:25:43;6.70;;;3.13;;
10641;SDS011;5369;49.586;8.646;2024-02-21T13:28:10;6.43;;;3.03;;
10641;SDS011;5369;49.586;8.646;2024-02-21T13:30:37;6.40;;;2.83;;
10641;SDS011;5369;49.586;8.646;2024-02-21T13:33:03;6.07;;;3.20;;
10641;SDS011;5369;49.586;8.646;2024-02-21T13:35:29;7.73;;;3.00;;
10641;SDS011;5369;49.586;8.646;2024-02-21T13:37:55;5.70;;;2.90;;
10641;SDS011;5369;49.586;8.646;2024-02-21T13:40:21;5.43;;;2.67;;
10641;SDS011;5369;49.586;8.646;2024-02-21T13:42:48;6.00;;;2.90;;
10641;SDS011;5369;49.586;8.646;2024-02-21T13:45:16;6.93;;;2.57;;
10641;SDS011;5369;49.586;8.646;2024-02-21T13:47:42;9.13;;;2.90;;
10641;SDS011;5369;49.586;8.646;2024-02-21T13:50:08;8.70;;;3.00;;
10641;SDS011;5369;49.586;8.646;2024-02-21T13:52:36;6.50;;;2.87;;
10641;SDS011;5369;49.586;8.646;2024-02-21T13:55:02;7.97;;;3.20;;
10641;SDS011;5369;49.586;8.646;2024-02-21T13:57:28;6.87;;;2.73;;
10641;SDS011;5369;49.586;8.646;2024-02-21T13:59:55;6.27;;;2.87;;
10641;SDS011;5369;49.586;8.646;2024-02-21T14:02:21;6.60;;;3.00;;
10641;SDS011;5369;49.586;8.646;2024-02-21T14:04:47;5.47;;;2.70;;
10641;SDS011;5369;49.586;8.646;2024-02-21T14:07:13;5.47;;;2.73;;
10641;SDS011;5369;49.586;8.646;2024-02-21T14:09:39;7.27;;;3.07;;
10641;SDS011;5369;49.586;8.646;2024-02-21T14:12:06;8.40;;;2.90;;
10641;SDS011;5369;49.586;8.646;2024-02-21T14:14:34;6.67;;;2.80;;
10641;SDS011;5369;49.586;8.646;2024-02-21T14:17:00;7.13;;;2.63;;
10641;SDS011;5369;49.586;8.646;2024-02-21T14:19:26;5.50;;;2.80;;
10641;SDS011;5369;49.586;8.646;2024-02-21T14:21:53;9.53;;;2.90;;
10641;SDS011;5369;49.586;8.646;2024-02-21T14:24:19;6.53;;;2.50;;
10641;SDS011;5369;49.586;8.646;2024-02-21T14:26:45;5.23;;;2.30;;
10641;SDS011;5369;49.586;8.646;2024-02-21T14:29:11;5.37;;;2.63;;
10641;SDS011;5369;49.586;8.646;2024-02-21T14:31:38;7.63;;;3.00;;
10641;SDS011;5369;49.586;8.646;2024-02-21T14:34:04;7.80;;;3.03;;
10641;SDS011;5369;49.586;8.646;2024-02-21T14:36:30;8.03;;;3.07;;
10641;SDS011;5369;49.586;8.646;2024-02-21T14:38:57;6.13;;;2.90;;
10641;SDS011;5369;49.586;8.646;2024-02-21T14:41:24;4.93;;;2.50;;
10641;SDS011;5369;49.586;8.646;2024-02-21T14:43:50;6.47;;;2.80;;
10641;SDS011;5369;49.586;8.646;2024-02-21T14:46:17;5.80;;;2.70;;
10641;SDS011;5369;49.586;8.646;2024-02-21T14:48:43;5.80;;;2.83;;
10641;SDS011;5369;49.586;8.646;2024-02-21T14:51:10;6.67;;;3.23;;
10641;SDS011;5369;49.586;8.646;2024-02-21T14:53:36;7.33;;;2.97;;
10641;SDS011;5369;49.586;8.646;2024-02-21T14:56:13;6.57;;;3.03;;
10641;SDS011;5369;49.586;8.646;2024-02-21T14:58:40;8.10;;;3.20;;